Ensign — WBN3012 — position and weather

sailwx.info

Track history (hours):
 
Tides and Currents Weather Stations Pressure Air Temp Water Temp Dewpoint Dewpoint Depression Visibility Wind Speed Wind Dir Waves Ship Positions

Ensign

Owner: Crowley Puerto Rico Services, Inc., Jacksonville, FL. More information available from US FCC via Universal Licensing System and Coast Guard Vessel Documentation Center.

Last reported at 2018-Jan-26 15:57 UTC. Time now 2018-Feb-19 00:07 UTC.
Position N 25°34' W 079°60'.
Warning: this ship's position is 23 days out of date.

Length 40 m; draft 5.2 m.

Type: Towing. MMSI: 366766850.

Date/timePositionNaut miles runAvg speedWind from/ knotsBaromVisibWave heightAir tempDewpointWater temp
2018-Jan-26 15:57N 25°34' W 079°60'2 4.8
2018-Jan-26 15:30N 25°35' W 080°02'3 5.5
2018-Jan-26 15:00N 25°37' W 080°04'3 5.1
2018-Jan-26 14:30N 25°39' W 080°04'3 5.1
2018-Jan-26 14:01N 25°42' W 080°04'3 5.4
2018-Jan-26 13:31N 25°45' W 080°04'3 6.0
2018-Jan-26 13:00N 25°48' W 080°04'3 5.7
2018-Jan-26 12:31N 25°50' W 080°04'3 5.8
2018-Jan-26 12:00N 25°53' W 080°04'3 5.9
2018-Jan-26 11:31N 25°56' W 080°04'3 6.0
2018-Jan-26 11:01N 25°59' W 080°04'3 6.4
2018-Jan-26 10:31N 26°02' W 080°03'3 6.3
2018-Jan-26 10:01N 26°06' W 080°03'2 3.4
2018-Jan-26 09:30N 26°07' W 080°03'2 4.8
2018-Jan-26 09:00N 26°10' W 080°03'3 6.2
2018-Jan-26 08:30N 26°13' W 080°03'4 7.9
2018-Jan-26 07:57N 26°17' W 080°02'3 7.5
2018-Jan-26 07:30N 26°20' W 080°03'30 9.7
2018-Jan-26 04:26N 26°50' W 079°59'4 9.8
2018-Jan-26 04:00N 26°54' W 079°59'510.5
2018-Jan-26 03:31N 26°59' W 080°01'  
Track history (hours):
 
Tides and Currents Weather Stations Pressure Air Temp Water Temp Dewpoint Dewpoint Depression Visibility Wind Speed Wind Dir Waves Ship Positions

Ensign

Owner: Crowley Puerto Rico Services, Inc., Jacksonville, FL. More information available from US FCC via Universal Licensing System and Coast Guard Vessel Documentation Center.

Last reported at 2018-Jan-26 15:57 UTC. Time now 2018-Feb-19 00:07 UTC.
Position N 25°34' W 079°60'.
Warning: this ship's position is 23 days out of date.

Length 40 m; draft 5.2 m.

Type: Towing. MMSI: 366766850.

Date/timePositionNaut miles runAvg speedWind from/ knotsBaromVisibWave heightAir tempDewpointWater temp
2018-Jan-26 15:57N 25°34' W 079°60'2 4.8
2018-Jan-26 15:30N 25°35' W 080°02'3 5.5
2018-Jan-26 15:00N 25°37' W 080°04'3 5.1
2018-Jan-26 14:30N 25°39' W 080°04'3 5.1
2018-Jan-26 14:01N 25°42' W 080°04'3 5.4
2018-Jan-26 13:31N 25°45' W 080°04'3 6.0
2018-Jan-26 13:00N 25°48' W 080°04'3 5.7
2018-Jan-26 12:31N 25°50' W 080°04'3 5.8
2018-Jan-26 12:00N 25°53' W 080°04'3 5.9
2018-Jan-26 11:31N 25°56' W 080°04'3 6.0
2018-Jan-26 11:01N 25°59' W 080°04'3 6.4
2018-Jan-26 10:31N 26°02' W 080°03'3 6.3
2018-Jan-26 10:01N 26°06' W 080°03'2 3.4
2018-Jan-26 09:30N 26°07' W 080°03'2 4.8
2018-Jan-26 09:00N 26°10' W 080°03'3 6.2
2018-Jan-26 08:30N 26°13' W 080°03'4 7.9
2018-Jan-26 07:57N 26°17' W 080°02'3 7.5
2018-Jan-26 07:30N 26°20' W 080°03'30 9.7
2018-Jan-26 04:26N 26°50' W 079°59'4 9.8
2018-Jan-26 04:00N 26°54' W 079°59'510.5
2018-Jan-26 03:31N 26°59' W 080°01'  

Dump ship's entire track history